Terminal Aerodrome Forecast
Issued by NWS Twin Cities, MN

Home | Current Version | Previous Version | Graphics & Text | Print | Product List | Glossary On
Versions: 1 2 3 4 5 6 7 8 9 10 11 12 13 14 15
000
FTUS43 KMPX 300520
TAFEAU
TAF
KEAU 300520Z 3006/3106 36011KT P6SM -RA BKN018 OVC030
     FM300900 01012KT P6SM SCT020 OVC100
     FM301400 02013G21KT P6SM FEW050 SCT250
     FM310100 03009KT P6SM FEW250=

USA.gov is the U.S. government's official web portal to all federal, state and local government web resources and services.